Time;durP1;ratioP1;P1;durP2;ratioP2;P2;SDS_P1;SDS_P2;PMS_P1;PMS_P2;Temp;Humidity;BMP_temperature;BMP_pressure;BME280_temperature;BME280_humidity;BME280_pressure;Samples;Min_cycle;Max_cycle;Signal;HPM_P1;HPM_P2
2023/04/19 00:01:30;;;;;;;6.97;6.27;;;14.70;65.80;;;;;;4194504;28;20051;-64
2023/04/19 00:04:11;;;;;;;6.75;6.15;;;14.70;66.20;;;;;;4194131;28;20164;-64
2023/04/19 00:06:54;;;;;;;7.70;5.85;;;14.70;65.70;;;;;;4194355;28;20059;-64
2023/04/19 00:09:34;;;;;;;6.82;6.22;;;14.70;65.80;;;;;;4193719;28;20064;-65
2023/04/19 00:12:15;;;;;;;10.27;6.33;;;14.70;65.90;;;;;;4194193;28;20122;-65
2023/04/19 00:14:56;;;;;;;7.53;6.70;;;14.70;66.00;;;;;;4193351;28;20510;-64
2023/04/19 00:17:37;;;;;;;7.75;6.78;;;14.70;65.70;;;;;;4193903;28;20072;-64
2023/04/19 00:20:19;;;;;;;7.32;6.68;;;14.70;65.70;;;;;;4193824;28;20051;-65
2023/04/19 00:23:00;;;;;;;7.15;6.03;;;14.70;66.00;;;;;;4193840;28;20059;-65
2023/04/19 00:25:41;;;;;;;7.32;6.22;;;14.70;66.00;;;;;;4182894;28;20403;-65
2023/04/19 00:28:22;;;;;;;6.97;6.28;;;14.70;66.50;;;;;;4193854;28;20047;-65
2023/04/19 00:31:03;;;;;;;6.67;6.07;;;14.60;66.10;;;;;;4194267;28;20039;-65
2023/04/19 00:33:44;;;;;;;7.60;6.80;;;14.60;66.30;;;;;;4193023;28;20282;-65
2023/04/19 00:36:26;;;;;;;7.63;6.82;;;14.60;66.90;;;;;;4193071;28;20514;-65
2023/04/19 00:39:07;;;;;;;8.88;6.60;;;14.60;66.60;;;;;;4193813;28;20129;-65
2023/04/19 00:41:51;;;;;;;8.02;7.28;;;14.60;66.70;;;;;;4192602;28;20122;-64
2023/04/19 00:44:32;;;;;;;7.82;6.70;;;14.60;67.10;;;;;;4192298;28;20093;-65
2023/04/19 00:47:14;;;;;;;10.07;7.03;;;14.50;67.10;;;;;;4192400;28;20051;-64
2023/04/19 00:49:55;;;;;;;8.18;7.38;;;14.50;67.40;;;;;;4192657;28;20113;-64
2023/04/19 00:52:36;;;;;;;8.32;7.53;;;14.60;68.00;;;;;;4193424;28;20059;-64
2023/04/19 00:55:18;;;;;;;8.55;7.63;;;14.60;68.20;;;;;;4175942;28;20059;-64
2023/04/19 00:58:00;;;;;;;9.18;8.27;;;14.50;68.30;;;;;;4176098;28;20051;-64
2023/04/19 01:00:41;;;;;;;10.95;8.40;;;14.50;68.10;;;;;;4176770;28;20064;-64
2023/04/19 01:03:22;;;;;;;12.38;8.70;;;14.50;68.00;;;;;;4182717;28;20514;-64
2023/04/19 01:06:04;;;;;;;10.70;8.32;;;14.50;68.00;;;;;;4191286;28;20174;-64
2023/04/19 01:08:45;;;;;;;9.73;8.73;;;14.50;68.00;;;;;;4188202;28;20498;-65
2023/04/19 01:11:29;;;;;;;9.07;7.43;;;14.50;67.90;;;;;;4193467;28;20427;-64
2023/04/19 01:14:10;;;;;;;11.93;8.85;;;14.50;67.90;;;;;;4192033;28;20174;-64
2023/04/19 01:16:51;;;;;;;9.75;8.35;;;14.50;67.80;;;;;;4192943;28;20106;-64
2023/04/19 01:19:33;;;;;;;10.05;8.13;;;14.50;67.70;;;;;;4192912;28;20127;-64
2023/04/19 01:22:18;;;;;;;11.02;8.27;;;14.50;67.80;;;;;;4191563;28;20079;-64
2023/04/19 01:24:59;;;;;;;11.25;9.15;;;14.40;68.10;;;;;;4192780;28;20498;-64
2023/04/19 01:27:40;;;;;;;13.80;8.70;;;14.40;67.90;;;;;;4193227;28;20067;-64
2023/04/19 01:30:21;;;;;;;9.18;7.75;;;14.40;67.10;;;;;;4191657;28;20141;-64
2023/04/19 01:33:01;;;;;;;10.27;8.40;;;14.40;67.00;;;;;;4190981;28;20173;-64
2023/04/19 01:35:43;;;;;;;9.68;7.38;;;14.40;67.40;;;;;;4190801;28;20109;-64
2023/04/19 01:38:25;;;;;;;9.55;8.50;;;14.40;66.80;;;;;;4191907;28;20118;-64
2023/04/19 01:41:06;;;;;;;10.15;8.35;;;14.30;66.70;;;;;;4192645;28;20541;-64
2023/04/19 01:43:47;;;;;;;10.10;7.93;;;14.30;67.30;;;;;;4192082;28;20063;-63
2023/04/19 01:46:28;;;;;;;10.33;8.43;;;14.40;66.60;;;;;;4191254;28;20093;-64
2023/04/19 01:49:09;;;;;;;9.93;8.18;;;14.30;66.20;;;;;;4191689;28;20618;-64
2023/04/19 01:51:49;;;;;;;10.52;8.75;;;14.30;66.50;;;;;;4192728;28;20101;-64
2023/04/19 01:54:32;;;;;;;8.70;7.75;;;14.30;65.90;;;;;;4179144;28;20055;-64
2023/04/19 01:57:15;;;;;;;9.65;8.05;;;14.30;66.40;;;;;;4192615;28;20105;-64
2023/04/19 01:59:56;;;;;;;8.88;7.90;;;14.30;66.00;;;;;;4185714;28;20056;-63
2023/04/19 02:02:37;;;;;;;10.32;7.32;;;14.20;65.70;;;;;;4179008;28;20047;-64
2023/04/19 02:05:18;;;;;;;14.30;8.27;;;14.20;65.40;;;;;;4191690;28;20414;-64
2023/04/19 02:08:00;;;;;;;8.00;7.20;;;14.20;65.50;;;;;;4192138;28;20122;-63
2023/04/19 02:10:44;;;;;;;13.82;7.97;;;14.20;65.30;;;;;;4192450;28;20071;-64
2023/04/19 02:13:25;;;;;;;9.73;7.57;;;14.20;65.40;;;;;;4190792;28;20379;-64
2023/04/19 02:16:06;;;;;;;8.20;7.27;;;14.20;64.90;;;;;;4191252;28;20505;-64
2023/04/19 02:18:48;;;;;;;6.78;6.13;;;14.20;65.60;;;;;;4192233;28;20055;-63
2023/04/19 02:21:31;;;;;;;8.48;6.45;;;14.20;65.00;;;;;;4191767;28;20506;-64
2023/04/19 02:24:12;;;;;;;8.25;7.45;;;14.20;64.20;;;;;;4175680;28;20047;-64
2023/04/19 02:26:56;;;;;;;8.98;6.57;;;14.20;64.60;;;;;;4174677;28;20059;-64
2023/04/19 02:29:37;;;;;;;9.45;6.80;;;14.10;62.80;;;;;;4183818;28;20055;-63
2023/04/19 02:32:18;;;;;;;6.65;5.82;;;14.10;63.50;;;;;;4191894;28;20486;-64
2023/04/19 02:34:59;;;;;;;9.82;7.38;;;14.10;62.10;;;;;;4191373;28;20125;-64
2023/04/19 02:37:42;;;;;;;6.78;5.82;;;14.10;62.00;;;;;;4192124;28;20497;-64
2023/04/19 02:40:24;;;;;;;8.98;6.30;;;14.10;62.30;;;;;;4192391;28;20056;-63
2023/04/19 02:43:06;;;;;;;7.10;6.35;;;14.10;62.50;;;;;;4190842;28;20097;-63
2023/04/19 02:45:47;;;;;;;7.93;5.80;;;14.10;61.50;;;;;;4191741;28;20194;-64
2023/04/19 02:48:28;;;;;;;8.07;6.68;;;14.00;61.80;;;;;;4190982;28;20051;-63
2023/04/19 02:51:15;;;;;;;6.97;6.30;;;14.00;61.40;;;;;;4191212;28;20052;-64
2023/04/19 02:53:56;;;;;;;8.75;7.10;;;14.00;62.30;;;;;;4174503;28;20395;-63
2023/04/19 02:56:37;;;;;;;8.13;7.32;;;14.00;63.10;;;;;;4174598;28;20071;-64
2023/04/19 02:59:19;;;;;;;8.40;6.97;;;14.00;61.90;;;;;;4175477;28;20051;-64
2023/04/19 03:02:00;;;;;;;7.45;6.18;;;14.00;62.00;;;;;;4179800;28;20419;-64
2023/04/19 03:04:42;;;;;;;14.13;7.05;;;14.00;62.40;;;;;;4190562;28;20063;-64
2023/04/19 03:07:23;;;;;;;8.10;6.88;;;14.00;62.30;;;;;;4190940;28;20055;-64
2023/04/19 03:10:05;;;;;;;8.30;6.93;;;14.00;62.30;;;;;;4192221;28;20055;-64
2023/04/19 03:12:45;;;;;;;7.70;6.57;;;14.00;62.00;;;;;;4191984;28;20064;-64
2023/04/19 03:15:29;;;;;;;7.25;5.88;;;14.00;62.50;;;;;;4174092;28;20072;-64
2023/04/19 03:18:10;;;;;;;8.77;7.10;;;14.00;61.70;;;;;;4179932;28;20190;-64
2023/04/19 03:20:53;;;;;;;9.52;6.47;;;14.00;61.60;;;;;;4190659;28;20182;-63
2023/04/19 03:23:34;;;;;;;7.85;6.68;;;13.90;62.00;;;;;;4165412;28;20071;-64
2023/04/19 03:26:15;;;;;;;7.30;6.10;;;14.00;61.70;;;;;;4190721;28;20527;-64
2023/04/19 03:29:00;;;;;;;11.35;6.82;;;13.90;61.80;;;;;;4190220;28;20052;-64
2023/04/19 03:32:11;;;;;;;11.20;6.15;;;13.90;62.10;;;;;;4191416;28;20067;-63
2023/04/19 03:34:52;;;;;;;7.70;6.93;;;14.00;61.60;;;;;;4188442;28;20055;-64
2023/04/19 03:37:32;;;;;;;7.38;6.57;;;14.00;61.50;;;;;;4178376;28;20052;-63
2023/04/19 03:40:14;;;;;;;7.55;6.15;;;13.90;61.70;;;;;;4179050;28;20487;-64
2023/04/19 03:42:55;;;;;;;9.73;6.95;;;13.90;61.50;;;;;;4194647;28;20060;-64
2023/04/19 03:45:40;;;;;;;6.80;6.05;;;13.90;61.60;;;;;;4193720;28;20495;-64
2023/04/19 03:48:23;;;;;;;6.65;5.90;;;13.90;61.20;;;;;;4193768;28;20050;-64
2023/04/19 03:51:04;;;;;;;7.30;6.18;;;13.90;61.00;;;;;;4187789;28;20056;-64
2023/04/19 03:53:45;;;;;;;6.82;6.07;;;13.90;61.30;;;;;;4176891;28;20048;-64
2023/04/19 03:56:30;;;;;;;6.28;5.57;;;13.80;61.00;;;;;;4176935;28;20056;-64
2023/04/19 03:59:11;;;;;;;8.13;5.78;;;13.80;60.20;;;;;;4192523;28;20066;-64
2023/04/19 04:01:52;;;;;;;;;;;13.80;60.70;;;;;;4193711;28;20075;-64
2023/04/19 04:04:35;;;;;;;7.60;5.75;;;13.80;60.00;;;;;;4194512;28;19927;-64
2023/04/19 04:07:16;;;;;;;11.65;5.88;;;13.80;60.60;;;;;;4194047;28;20083;-64
2023/04/19 04:09:57;;;;;;;8.40;6.50;;;13.80;60.50;;;;;;4176643;28;20134;-64
2023/04/19 04:12:38;;;;;;;6.35;5.75;;;13.70;61.10;;;;;;4176391;28;20044;-64
2023/04/19 04:15:21;;;;;;;6.05;4.75;;;13.70;59.60;;;;;;4182140;28;20162;-64
2023/04/19 04:18:05;;;;;;;9.55;5.70;;;13.70;60.00;;;;;;4192646;28;20048;-64
2023/04/19 04:20:50;;;;;;;8.10;5.32;;;13.70;60.90;;;;;;4192555;28;20090;-64
2023/04/19 04:23:32;;;;;;;5.90;5.28;;;13.70;59.90;;;;;;4192414;28;20055;-64
2023/04/19 04:26:15;;;;;;;7.07;5.30;;;13.70;59.80;;;;;;4180961;28;20492;-64
2023/04/19 04:29:10;;;;;;;6.15;5.55;;;13.70;60.30;;;;;;4192429;28;20185;-64
2023/04/19 04:31:53;;;;;;;5.57;5.07;;;13.70;59.70;;;;;;4192265;28;20046;-64
2023/04/19 04:34:41;;;;;;;5.43;4.72;;;13.70;60.20;;;;;;4192748;28;20059;-64
2023/04/19 04:37:28;;;;;;;5.50;4.93;;;13.60;59.40;;;;;;4180908;28;20039;-64
2023/04/19 04:40:11;;;;;;;5.63;4.90;;;13.60;59.10;;;;;;4187487;28;20395;-64
2023/04/19 04:42:53;;;;;;;8.15;5.22;;;13.70;59.20;;;;;;4177186;28;20189;-64
2023/04/19 04:45:34;;;;;;;6.47;4.53;;;13.70;58.90;;;;;;4183168;28;20117;-64
2023/04/19 04:48:16;;;;;;;6.10;5.07;;;13.70;58.90;;;;;;4192548;28;20059;-64
2023/04/19 04:50:58;;;;;;;5.63;4.43;;;13.60;59.20;;;;;;4192551;28;20564;-64
2023/04/19 04:53:42;;;;;;;6.55;4.75;;;13.60;58.80;;;;;;4192521;28;20537;-64
2023/04/19 04:56:24;;;;;;;5.22;4.38;;;13.60;58.40;;;;;;4192291;28;20407;-64
2023/04/19 04:59:06;;;;;;;5.15;4.65;;;13.60;58.50;;;;;;4192191;28;20070;-64
2023/04/19 05:01:51;;;;;;;4.63;4.20;;;13.60;58.80;;;;;;4191880;28;20067;-64
2023/04/19 05:04:32;;;;;;;;;;;13.60;58.60;;;;;;4192229;28;20055;-64
2023/04/19 05:07:13;;;;;;;5.22;4.72;;;13.60;58.30;;;;;;4193260;28;20005;-64
2023/04/19 05:09:55;;;;;;;5.07;4.20;;;13.60;59.40;;;;;;4192054;28;20059;-64
2023/04/19 05:12:41;;;;;;;4.68;4.28;;;13.60;58.60;;;;;;4191641;28;20302;-64
2023/04/19 05:15:22;;;;;;;5.32;4.18;;;13.60;59.30;;;;;;4179784;28;20052;-64
2023/04/19 05:18:07;;;;;;;4.38;3.97;;;13.60;58.80;;;;;;4192134;28;20383;-64
2023/04/19 05:20:48;;;;;;;4.57;3.63;;;13.70;58.50;;;;;;4192010;28;20055;-64
2023/04/19 05:23:33;;;;;;;4.50;4.05;;;13.70;59.00;;;;;;4186596;28;20055;-64
2023/04/19 05:26:16;;;;;;;5.75;4.25;;;13.70;59.30;;;;;;4175424;28;20063;-64
2023/04/19 05:28:58;;;;;;;5.45;4.07;;;13.80;58.10;;;;;;4167713;28;20082;-64
2023/04/19 05:31:50;;;;;;;5.32;3.88;;;13.80;59.50;;;;;;4188719;28;20048;-64
2023/04/19 05:34:37;;;;;;;4.70;4.22;;;13.80;59.30;;;;;;4191854;28;20123;-66
2023/04/19 05:37:18;;;;;;;8.13;3.97;;;13.80;58.50;;;;;;4191577;28;20490;-64
2023/04/19 05:39:59;;;;;;;4.53;4.10;;;13.90;58.40;;;;;;4192873;28;20043;-63
2023/04/19 05:42:42;;;;;;;6.45;4.25;;;13.90;59.30;;;;;;4191107;28;20121;-63
2023/04/19 05:45:24;;;;;;;4.85;3.97;;;13.90;58.30;;;;;;4187011;28;20122;-64
2023/04/19 05:48:06;;;;;;;5.82;3.97;;;14.00;58.00;;;;;;4175455;28;20051;-64
2023/04/19 05:51:01;;;;;;;4.55;4.15;;;14.00;59.20;;;;;;4163457;28;20052;-64
2023/04/19 05:54:03;;;;;;;4.47;4.07;;;14.00;58.50;;;;;;4180513;28;20054;-64
2023/04/19 05:56:45;;;;;;;4.97;3.90;;;14.00;58.30;;;;;;4179298;28;20043;-65
2023/04/19 05:59:28;;;;;;;4.03;3.67;;;14.00;58.40;;;;;;4191491;28;20051;-64
2023/04/19 06:02:09;;;;;;;4.35;3.90;;;14.00;59.00;;;;;;4186331;28;20051;-64
2023/04/19 06:04:51;;;;;;;6.53;4.00;;;14.00;58.70;;;;;;4174920;28;20052;-64
2023/04/19 06:07:32;;;;;;;4.55;3.88;;;14.00;59.50;;;;;;4189707;28;20486;-64
2023/04/19 06:10:18;;;;;;;5.43;4.00;;;13.90;59.10;;;;;;4173987;28;20519;-64
2023/04/19 06:12:59;;;;;;;3.60;3.30;;;13.90;60.20;;;;;;4175812;28;20090;-63
2023/04/19 06:15:43;;;;;;;4.13;3.70;;;13.90;59.50;;;;;;4178144;28;20761;-64
2023/04/19 06:18:24;;;;;;;4.20;3.22;;;14.00;59.60;;;;;;4192213;28;20593;-64
2023/04/19 06:21:06;;;;;;;4.10;3.75;;;13.90;59.90;;;;;;4191696;28;20106;-64
2023/04/19 06:23:46;;;;;;;4.32;3.05;;;14.00;59.10;;;;;;4176495;28;20059;-64
2023/04/19 06:26:27;;;;;;;5.47;3.55;;;14.00;58.80;;;;;;4192131;28;20106;-64
2023/04/19 06:29:08;;;;;;;3.55;2.97;;;14.10;59.00;;;;;;4189334;28;20448;-64
2023/04/19 06:31:50;;;;;;;4.37;2.97;;;14.10;58.30;;;;;;4177694;28;20056;-64
2023/04/19 06:34:31;;;;;;;3.40;3.10;;;14.20;58.00;;;;;;4192094;28;20606;-64
2023/04/19 06:37:11;;;;;;;4.30;3.42;;;14.20;57.50;;;;;;4175412;28;20044;-64
2023/04/19 06:39:52;;;;;;;4.45;3.55;;;14.30;56.40;;;;;;4182577;28;20051;-64
2023/04/19 06:42:34;;;;;;;3.20;3.00;;;14.40;57.00;;;;;;4191742;28;20043;-64
2023/04/19 06:45:15;;;;;;;4.32;3.13;;;14.40;56.10;;;;;;4191981;28;20856;-63
2023/04/19 06:47:57;;;;;;;3.60;3.30;;;14.40;55.90;;;;;;4192273;28;20060;-63
2023/04/19 06:50:38;;;;;;;4.72;3.63;;;14.40;56.00;;;;;;4175534;28;20056;-63
2023/04/19 06:53:19;;;;;;;3.57;3.23;;;14.50;56.20;;;;;;4175517;28;20051;-63
2023/04/19 06:56:01;;;;;;;3.50;2.90;;;14.50;55.60;;;;;;4175740;28;20745;-63
2023/04/19 06:58:42;;;;;;;6.43;3.45;;;14.60;55.70;;;;;;4175631;28;20055;-63
2023/04/19 07:01:23;;;;;;;4.13;2.92;;;14.60;55.30;;;;;;4176021;28;20511;-64
2023/04/19 07:04:06;;;;;;;3.60;3.03;;;14.60;55.80;;;;;;4175718;28;20051;-66
2023/04/19 07:06:49;;;;;;;3.35;2.47;;;14.60;55.20;;;;;;4191988;28;20059;-64
2023/04/19 07:09:30;;;;;;;4.47;3.30;;;14.70;54.80;;;;;;4195271;28;20063;-64
2023/04/19 07:12:11;;;;;;;4.95;3.08;;;14.60;54.30;;;;;;4194544;28;20172;-64
2023/04/19 07:14:55;;;;;;;2.60;2.40;;;14.70;54.30;;;;;;4187850;28;20063;-64
2023/04/19 07:17:36;;;;;;;2.92;2.72;;;14.70;55.30;;;;;;4195231;28;20178;-64
2023/04/19 07:20:18;;;;;;;;;;;14.70;54.60;;;;;;4179115;28;20055;-64
2023/04/19 07:22:59;;;;;;;2.78;2.42;;;14.70;54.70;;;;;;4178596;28;19931;-64
2023/04/19 07:25:40;;;;;;;3.20;2.60;;;14.70;54.70;;;;;;4193335;28;20066;-64
2023/04/19 07:28:21;;;;;;;3.58;2.40;;;14.70;55.20;;;;;;4194382;28;20055;-63
2023/04/19 07:31:02;;;;;;;2.60;2.40;;;14.80;55.00;;;;;;4187171;28;20055;-63
2023/04/19 07:33:43;;;;;;;3.55;2.25;;;14.80;54.80;;;;;;4194406;28;20059;-63
2023/04/19 07:36:26;;;;;;;3.35;2.33;;;14.90;55.10;;;;;;4194235;28;20062;-64
2023/04/19 07:39:07;;;;;;;3.55;2.20;;;15.00;54.30;;;;;;4194366;28;20498;-63
2023/04/19 07:41:48;;;;;;;3.13;2.35;;;15.00;54.40;;;;;;4194795;28;20052;-63
2023/04/19 07:44:29;;;;;;;2.20;2.10;;;15.00;55.50;;;;;;4194279;28;20056;-63
2023/04/19 07:47:10;;;;;;;2.60;2.35;;;15.00;54.30;;;;;;4194622;28;20074;-63
2023/04/19 07:49:52;;;;;;;2.70;2.50;;;15.10;55.00;;;;;;4194734;28;20051;-63
2023/04/19 07:52:34;;;;;;;2.38;2.17;;;15.10;54.20;;;;;;4193744;28;20051;-63
2023/04/19 07:55:15;;;;;;;2.33;2.08;;;15.10;54.20;;;;;;4191767;28;20073;-62
2023/04/19 07:57:56;;;;;;;3.00;2.50;;;15.10;53.40;;;;;;4193212;28;20055;-63
2023/04/19 08:00:37;;;;;;;2.38;2.17;;;15.10;54.00;;;;;;4194476;28;20501;-63
2023/04/19 08:03:17;;;;;;;2.65;2.45;;;15.20;54.40;;;;;;4193213;28;20047;-63
2023/04/19 08:06:01;;;;;;;3.95;2.00;;;15.20;54.00;;;;;;4194391;28;20043;-62
2023/04/19 08:08:43;;;;;;;1.98;1.88;;;15.20;53.30;;;;;;4194285;28;20133;-63
2023/04/19 08:11:24;;;;;;;2.65;2.10;;;15.20;52.90;;;;;;4177345;28;20138;-62
2023/04/19 08:14:05;;;;;;;2.10;2.00;;;15.20;53.90;;;;;;4177992;28;20700;-63
2023/04/19 08:16:54;;;;;;;2.30;2.10;;;15.20;53.20;;;;;;4177728;28;20060;-63
2023/04/19 08:19:55;;;;;;;2.15;2.05;;;15.20;53.90;;;;;;4177009;28;20400;-63
2023/04/19 08:22:35;;;;;;;1.95;1.80;;;15.30;53.20;;;;;;4177814;28;20055;-66
2023/04/19 08:25:18;;;;;;;2.90;2.10;;;15.30;53.00;;;;;;4177729;28;20051;-66
2023/04/19 08:27:59;;;;;;;2.33;1.80;;;15.30;53.30;;;;;;4194070;28;20109;-66
2023/04/19 08:30:40;;;;;;;1.80;1.70;;;15.30;52.60;;;;;;4193706;28;20052;-66
2023/04/19 08:33:21;;;;;;;;;;;15.30;53.40;;;;;;4194595;28;20074;-68
2023/04/19 08:36:02;;;;;;;1.98;1.88;;;15.30;53.40;;;;;;4193952;28;19994;-65
2023/04/19 08:38:43;;;;;;;2.25;2.03;;;15.30;53.00;;;;;;4193615;28;20123;-66
2023/04/19 08:41:30;;;;;;;3.53;2.13;;;15.30;52.90;;;;;;4193800;28;20055;-66
2023/04/19 08:44:13;;;;;;;1.60;1.60;;;15.30;52.80;;;;;;4175860;28;20048;-66
2023/04/19 08:46:54;;;;;;;1.92;1.80;;;15.40;53.40;;;;;;4177259;28;20052;-65
2023/04/19 08:49:35;;;;;;;2.10;2.00;;;15.40;52.40;;;;;;4176810;28;20079;-67
2023/04/19 08:52:17;;;;;;;2.42;1.88;;;15.40;52.70;;;;;;4176792;28;20129;-66
2023/04/19 08:55:01;;;;;;;1.63;1.50;;;15.40;52.10;;;;;;4185907;28;20206;-66
2023/04/19 08:57:43;;;;;;;1.65;1.55;;;15.40;52.20;;;;;;4192297;28;20059;-66
2023/04/19 09:00:23;;;;;;;1.70;1.60;;;15.40;52.20;;;;;;4193523;28;20056;-66
2023/04/19 09:03:07;;;;;;;4.22;1.50;;;15.40;52.00;;;;;;4177236;28;20109;-66
2023/04/19 09:05:48;;;;;;;1.85;1.75;;;15.50;52.70;;;;;;4176988;28;20063;-66
2023/04/19 09:08:30;;;;;;;2.45;1.38;;;15.40;51.30;;;;;;4180747;28;20129;-66
2023/04/19 09:11:11;;;;;;;1.52;1.40;;;15.50;51.10;;;;;;4193530;28;20415;-66
2023/04/19 09:14:08;;;;;;;1.77;1.67;;;15.50;51.50;;;;;;4192194;28;20517;-66
2023/04/19 09:16:50;;;;;;;2.45;1.83;;;15.60;50.90;;;;;;4192963;28;20044;-66
2023/04/19 09:19:45;;;;;;;1.80;1.70;;;15.60;51.30;;;;;;4193219;28;20514;-66
2023/04/19 09:22:27;;;;;;;1.65;1.55;;;15.60;50.80;;;;;;4192873;28;20067;-66
2023/04/19 09:25:08;;;;;;;1.80;1.42;;;15.60;51.70;;;;;;4193036;28;20449;-66
2023/04/19 09:27:52;;;;;;;3.85;1.50;;;15.60;51.10;;;;;;4180497;28;20051;-65
2023/04/19 09:30:34;;;;;;;1.65;1.45;;;15.70;51.10;;;;;;4192016;28;20518;-66
2023/04/19 09:33:33;;;;;;;3.47;1.58;;;15.70;51.10;;;;;;4188386;28;20051;-66
2023/04/19 09:36:27;;;;;;;2.63;1.50;;;15.70;50.40;;;;;;4187145;28;20059;-68
2023/04/19 09:39:10;;;;;;;3.58;1.80;;;15.70;49.30;;;;;;4192413;28;20067;-66
2023/04/19 09:41:52;;;;;;;2.40;1.48;;;15.80;49.60;;;;;;4192801;28;20052;-65
2023/04/19 09:44:34;;;;;;;;;;;15.80;48.40;;;;;;4193008;28;20055;-65
2023/04/19 09:47:36;;;;;;;1.40;1.40;;;15.80;50.30;;;;;;4192573;28;19931;-62
2023/04/19 09:50:16;;;;;;;1.83;1.58;;;15.90;49.60;;;;;;4192861;28;20051;-63
2023/04/19 09:53:03;;;;;;;1.33;1.13;;;15.90;49.60;;;;;;4192487;28;20051;-62
2023/04/19 09:55:46;;;;;;;1.52;1.40;;;15.80;49.80;;;;;;4192460;28;20499;-62
2023/04/19 09:58:39;;;;;;;3.47;1.45;;;15.90;50.40;;;;;;4192087;28;20063;-63
2023/04/19 10:01:31;;;;;;;1.38;1.27;;;15.90;50.00;;;;;;4192531;28;20050;-63
2023/04/19 10:04:20;;;;;;;1.85;1.23;;;15.90;50.60;;;;;;4192674;28;20060;-63
2023/04/19 10:07:12;;;;;;;2.63;1.08;;;15.90;50.90;;;;;;4192308;28;20174;-63
2023/04/19 10:09:58;;;;;;;2.83;1.60;;;15.90;50.00;;;;;;4175700;28;20115;-63
2023/04/19 10:12:54;;;;;;;1.70;1.58;;;16.00;50.90;;;;;;4191144;28;20186;-63
2023/04/19 10:15:38;;;;;;;2.55;1.25;;;16.00;49.80;;;;;;4191811;28;20059;-63
2023/04/19 10:18:31;;;;;;;1.50;1.40;;;16.00;50.20;;;;;;4192143;28;20501;-63
2023/04/19 10:21:13;;;;;;;;;;;16.00;49.20;;;;;;4192897;28;20098;-63
2023/04/19 10:23:55;;;;;;;1.27;1.20;;;16.10;50.60;;;;;;4192189;28;19931;-63
2023/04/19 10:27:00;;;;;;;;;;;16.00;49.80;;;;;;4192053;28;20046;-63
2023/04/19 10:29:58;;;;;;;2.10;1.40;;;16.10;49.40;;;;;;4192488;28;20444;-62
2023/04/19 10:32:40;;;;;;;2.85;1.30;;;16.00;49.10;;;;;;4192049;28;20178;-63
2023/04/19 10:35:23;;;;;;;1.67;1.58;;;16.10;49.40;;;;;;4191156;28;20506;-63
2023/04/19 10:38:11;;;;;;;1.40;1.30;;;16.10;49.10;;;;;;4175713;28;20103;-63
2023/04/19 10:41:00;;;;;;;1.50;1.40;;;16.10;48.70;;;;;;4184403;28;20078;-62
2023/04/19 10:43:44;;;;;;;2.55;1.38;;;16.10;50.30;;;;;;4195930;28;20059;-62
2023/04/19 10:46:38;;;;;;;2.95;1.60;;;16.10;50.90;;;;;;4189661;28;20145;-62
2023/04/19 10:49:23;;;;;;;3.03;1.63;;;16.10;50.10;;;;;;4195434;28;20048;-63
2023/04/19 10:52:04;;;;;;;1.83;1.20;;;16.10;51.10;;;;;;4194999;28;20064;-63
2023/04/19 10:54:55;;;;;;;2.03;1.30;;;16.10;49.90;;;;;;4195672;28;20490;-63
2023/04/19 10:57:51;;;;;;;;;;;16.10;49.50;;;;;;4194733;28;20060;-64
2023/04/19 11:00:34;;;;;;;1.55;1.20;;;16.10;50.70;;;;;;4193296;28;20394;-64
2023/04/19 11:03:51;;;;;;;1.48;1.27;;;16.10;49.70;;;;;;4194892;28;20097;-64
2023/04/19 11:06:32;;;;;;;1.27;1.10;;;16.10;49.30;;;;;;4193900;28;20059;-66
2023/04/19 11:09:22;;;;;;;1.67;1.45;;;16.10;49.60;;;;;;4194364;28;20055;-62
2023/04/19 11:12:07;;;;;;;3.92;1.77;;;16.10;49.20;;;;;;4194544;28;20043;-63
2023/04/19 11:14:51;;;;;;;4.53;1.80;;;16.10;48.90;;;;;;4193086;28;20510;-63
2023/04/19 11:17:32;;;;;;;1.75;1.50;;;16.10;48.90;;;;;;4178133;28;20060;-63
2023/04/19 11:20:13;;;;;;;3.15;1.42;;;16.10;48.60;;;;;;4178608;28;20519;-62
2023/04/19 11:22:59;;;;;;;3.40;1.60;;;16.10;48.80;;;;;;4187993;28;20059;-63
2023/04/19 11:25:40;;;;;;;2.25;1.95;;;16.10;48.60;;;;;;4195086;28;20054;-62
2023/04/19 11:28:23;;;;;;;2.28;1.80;;;16.10;48.50;;;;;;4194013;28;20051;-62
2023/04/19 11:31:04;;;;;;;4.20;1.70;;;16.10;48.70;;;;;;4178513;28;20056;-63
2023/04/19 11:33:45;;;;;;;2.28;2.17;;;16.10;48.70;;;;;;4177332;28;20063;-63
2023/04/19 11:36:26;;;;;;;3.03;2.30;;;16.10;49.00;;;;;;4192302;28;20403;-62
2023/04/19 11:39:07;;;;;;;2.55;2.10;;;16.10;49.10;;;;;;4194775;28;20560;-63
2023/04/19 11:41:48;;;;;;;2.63;2.42;;;16.10;49.40;;;;;;4194615;28;20055;-62
2023/04/19 11:44:32;;;;;;;2.42;2.20;;;16.10;48.70;;;;;;4194872;28;20059;-62
2023/04/19 11:47:13;;;;;;;2.45;2.25;;;16.00;48.20;;;;;;4194199;28;20051;-63
2023/04/19 11:49:55;;;;;;;2.53;2.20;;;16.00;48.40;;;;;;4193884;28;20043;-63
2023/04/19 11:52:36;;;;;;;3.38;2.40;;;16.00;48.50;;;;;;4194668;28;20145;-62
2023/04/19 11:55:20;;;;;;;2.25;1.88;;;16.00;49.00;;;;;;4193463;28;20063;-67
2023/04/19 11:58:01;;;;;;;3.00;2.63;;;16.00;49.30;;;;;;4194436;28;20552;-66
2023/04/19 12:00:47;;;;;;;2.60;2.03;;;16.00;49.50;;;;;;4178066;28;20067;-66
2023/04/19 12:03:27;;;;;;;2.40;2.20;;;16.00;49.20;;;;;;4190884;28;20051;-66
2023/04/19 12:06:11;;;;;;;2.22;2.10;;;16.00;49.60;;;;;;4194290;28;20052;-68
2023/04/19 12:08:53;;;;;;;2.55;2.40;;;16.00;49.40;;;;;;4194376;28;20052;-66
2023/04/19 12:11:43;;;;;;;3.17;2.13;;;16.00;49.50;;;;;;4193746;28;20046;-66
2023/04/19 12:14:25;;;;;;;2.25;2.10;;;16.00;49.60;;;;;;4193275;28;20174;-66
2023/04/19 12:17:10;;;;;;;4.80;2.35;;;16.00;49.80;;;;;;4193300;28;20496;-69
2023/04/19 12:19:51;;;;;;;3.35;1.98;;;16.00;49.60;;;;;;4193666;28;20067;-67
2023/04/19 12:22:32;;;;;;;2.88;2.65;;;16.00;49.60;;;;;;4194147;28;20055;-66
2023/04/19 12:25:13;;;;;;;4.78;2.88;;;16.00;49.50;;;;;;4177494;28;20052;-68
2023/04/19 12:27:54;;;;;;;3.08;2.58;;;16.00;49.50;;;;;;4177485;28;20188;-67
2023/04/19 12:30:36;;;;;;;2.47;2.20;;;16.00;49.60;;;;;;4188951;28;20510;-67
2023/04/19 12:33:18;;;;;;;2.28;2.00;;;16.00;49.50;;;;;;4177369;28;20048;-67
2023/04/19 12:36:00;;;;;;;3.20;2.40;;;16.00;49.90;;;;;;4189736;28;20086;-63
2023/04/19 12:38:41;;;;;;;4.20;2.63;;;16.10;49.50;;;;;;4194191;28;20627;-62
2023/04/19 12:41:22;;;;;;;2.60;2.50;;;16.00;49.40;;;;;;4191349;28;20110;-67
2023/04/19 12:44:03;;;;;;;2.70;2.47;;;16.10;50.10;;;;;;4193453;28;20079;-67
2023/04/19 12:46:44;;;;;;;4.03;2.28;;;16.00;50.00;;;;;;4193639;28;20052;-67
2023/04/19 12:49:26;;;;;;;2.40;2.20;;;16.00;49.90;;;;;;4193349;28;20059;-67
2023/04/19 12:52:07;;;;;;;2.78;2.50;;;16.10;50.00;;;;;;4193316;28;20047;-67
2023/04/19 12:54:48;;;;;;;3.47;3.20;;;16.10;50.00;;;;;;4193310;28;20379;-67
2023/04/19 12:57:29;;;;;;;3.50;2.28;;;16.10;50.30;;;;;;4191575;28;20106;-67
2023/04/19 13:00:11;;;;;;;4.15;2.97;;;16.10;50.10;;;;;;4193561;28;20048;-68
2023/04/19 13:02:51;;;;;;;;;;;16.10;49.70;;;;;;4192552;28;20170;-66
2023/04/19 13:05:34;;;;;;;3.22;2.50;;;16.10;50.80;;;;;;4189922;28;20099;-66
2023/04/19 13:08:15;;;;;;;3.03;2.70;;;16.10;51.00;;;;;;4192475;28;20070;-65
2023/04/19 13:10:58;;;;;;;2.83;2.63;;;16.10;50.60;;;;;;4192983;28;20048;-66
2023/04/19 13:13:39;;;;;;;4.22;2.38;;;16.10;50.60;;;;;;4192854;28;20411;-66
2023/04/19 13:16:21;;;;;;;2.95;2.35;;;16.10;50.80;;;;;;4192855;28;20047;-66
2023/04/19 13:19:02;;;;;;;2.58;2.38;;;16.10;50.80;;;;;;4192710;28;20047;-66
2023/04/19 13:21:45;;;;;;;4.00;2.88;;;16.10;50.60;;;;;;4176715;28;20416;-65
2023/04/19 13:24:26;;;;;;;2.95;2.85;;;16.10;50.60;;;;;;4176544;28;20059;-65
2023/04/19 13:27:06;;;;;;;2.78;2.58;;;16.20;50.70;;;;;;4175701;28;20044;-65
2023/04/19 13:29:48;;;;;;;3.58;2.80;;;16.10;51.70;;;;;;4176551;28;20059;-65
2023/04/19 13:32:29;;;;;;;2.73;2.53;;;16.10;51.00;;;;;;4186806;28;20772;-65
2023/04/19 13:35:10;;;;;;;2.92;2.72;;;16.20;50.80;;;;;;4192453;28;20145;-65
2023/04/19 13:37:52;;;;;;;2.88;2.55;;;16.10;50.90;;;;;;4192209;28;20047;-65
2023/04/19 13:40:33;;;;;;;4.05;2.90;;;16.10;50.90;;;;;;4190894;28;20416;-65
2023/04/19 13:43:14;;;;;;;3.30;2.97;;;16.20;51.00;;;;;;4192064;28;20048;-65
2023/04/19 13:45:55;;;;;;;4.80;3.20;;;16.20;51.10;;;;;;4192189;28;20509;-65
2023/04/19 13:48:36;;;;;;;3.33;2.70;;;16.20;51.70;;;;;;4186132;28;20489;-65
2023/04/19 13:51:17;;;;;;;5.55;3.10;;;16.20;50.70;;;;;;4192445;28;20189;-66
2023/04/19 13:54:00;;;;;;;3.17;2.88;;;16.20;51.00;;;;;;4175948;28;20102;-64
2023/04/19 13:56:41;;;;;;;3.28;3.00;;;16.20;51.00;;;;;;4175962;28;20060;-64
2023/04/19 13:59:24;;;;;;;3.03;2.83;;;16.10;50.90;;;;;;4174889;28;20110;-64
2023/04/19 14:02:06;;;;;;;2.50;2.30;;;16.20;51.10;;;;;;4192146;28;20609;-64
2023/04/19 14:04:46;;;;;;;3.20;2.80;;;16.20;50.70;;;;;;4192234;28;20059;-67
2023/04/19 14:07:27;;;;;;;3.67;3.38;;;16.20;51.20;;;;;;4175726;28;20182;-67
2023/04/19 14:10:11;;;;;;;3.30;3.00;;;16.20;51.20;;;;;;4177653;28;20122;-67